Time;durP1;ratioP1;P1;durP2;ratioP2;P2;SDS_P1;SDS_P2;PMS_P1;PMS_P2;Temp;Humidity;BMP_temperature;BMP_pressure;BME280_temperature;BME280_humidity;BME280_pressure;Samples;Min_cycle;Max_cycle;Signal;HPM_P1;HPM_P2
2024/01/06 00:01:40;;;;;;;2.00;1.90;;;15.60;69.00;16.60;99439.00;;;;5068904;28;20189;-43
2024/01/06 00:04:05;;;;;;;2.20;2.00;;;15.50;68.90;16.50;99442.00;;;;5068980;28;20213;-44
2024/01/06 00:06:32;;;;;;;2.00;1.80;;;15.60;69.00;16.50;99439.00;;;;5068814;28;20193;-43
2024/01/06 00:08:58;;;;;;;2.00;1.90;;;15.50;68.90;16.50;99433.00;;;;5068709;28;20182;-43
2024/01/06 00:11:23;;;;;;;1.90;1.77;;;15.50;68.90;16.50;99439.00;;;;5068439;28;20187;-43
2024/01/06 00:13:49;;;;;;;2.33;2.00;;;15.60;69.00;16.50;99444.00;;;;5035131;28;20231;-44
2024/01/06 00:16:19;;;;;;;2.03;1.90;;;15.50;68.90;16.50;99460.00;;;;5068032;28;20272;-43
2024/01/06 00:18:45;;;;;;;2.00;1.80;;;15.50;68.90;16.50;99447.00;;;;5044771;28;20191;-43
2024/01/06 00:21:11;;;;;;;1.80;1.70;;;15.50;68.90;16.50;99454.00;;;;5072545;28;20618;-43
2024/01/06 00:23:37;;;;;;;2.20;2.00;;;15.50;68.90;16.50;99458.00;;;;5072196;28;20211;-43
2024/01/06 00:26:03;;;;;;;2.53;1.80;;;15.50;68.90;16.50;99451.00;;;;5072786;28;20174;-44
2024/01/06 00:28:29;;;;;;;2.03;1.90;;;15.50;68.90;16.50;99457.00;;;;5072393;28;20174;-44
2024/01/06 00:30:55;;;;;;;2.27;2.07;;;15.50;68.90;16.40;99450.00;;;;5072445;28;20181;-43
2024/01/06 00:33:21;;;;;;;1.67;1.57;;;15.40;68.80;16.40;99460.00;;;;5072350;28;20202;-44
2024/01/06 00:35:46;;;;;;;2.00;1.90;;;15.50;68.90;16.40;99459.00;;;;5072388;28;20183;-44
2024/01/06 00:38:12;;;;;;;2.30;2.10;;;15.40;68.80;16.40;99469.00;;;;5072460;28;20666;-43
2024/01/06 00:40:38;;;;;;;2.00;1.90;;;15.40;68.80;16.40;99467.00;;;;5046310;28;20183;-43
2024/01/06 00:43:04;;;;;;;2.10;2.00;;;15.40;68.80;16.40;99465.00;;;;5072235;28;20248;-43
2024/01/06 00:45:30;;;;;;;2.00;1.90;;;15.40;68.80;16.40;99463.00;;;;5046095;28;20186;-44
2024/01/06 00:47:56;;;;;;;2.20;2.00;;;15.40;68.80;16.40;99462.00;;;;5072297;28;20189;-44
2024/01/06 00:50:22;;;;;;;1.97;1.87;;;15.40;68.80;16.40;99457.00;;;;5071878;28;20668;-43
2024/01/06 00:52:48;;;;;;;2.23;2.03;;;15.40;68.80;16.30;99467.00;;;;5071700;28;20229;-43
2024/01/06 00:55:13;;;;;;;2.30;2.10;;;15.40;68.80;16.40;99465.00;;;;5076195;28;20178;-43
2024/01/06 00:57:39;;;;;;;2.10;1.90;;;15.40;68.80;16.30;99472.00;;;;5077716;28;21126;-43
2024/01/06 01:00:05;;;;;;;2.17;1.97;;;15.30;68.60;16.30;99475.00;;;;5071909;28;20180;-43
2024/01/06 01:02:32;;;;;;;2.17;2.00;;;15.40;68.80;16.30;99482.00;;;;5070699;28;20227;-43
2024/01/06 01:04:57;;;;;;;2.07;1.93;;;15.30;68.60;16.30;99474.00;;;;5071057;28;20176;-42
2024/01/06 01:07:24;;;;;;;2.17;2.00;;;15.30;68.60;16.30;99406.00;;;;5070876;28;20790;-43
2024/01/06 01:09:50;;;;;;;2.47;2.27;;;15.30;68.60;16.30;99476.00;;;;5070499;28;20175;-43
2024/01/06 01:12:15;;;;;;;2.10;2.00;;;15.30;68.60;16.30;99483.00;;;;5070827;28;20181;-43
2024/01/06 01:14:41;;;;;;;2.30;2.10;;;15.30;68.60;16.30;99478.00;;;;5070597;28;20565;-43
2024/01/06 01:17:07;;;;;;;2.40;2.20;;;15.30;68.60;16.30;99476.00;;;;5070544;28;20177;-43
2024/01/06 01:19:32;;;;;;;2.10;2.00;;;15.30;68.60;16.30;99488.00;;;;5051602;28;20230;-44
2024/01/06 01:21:58;;;;;;;2.10;2.00;;;15.30;68.80;16.30;99478.00;;;;5070211;28;20190;-43
2024/01/06 01:24:24;;;;;;;2.37;2.17;;;15.30;68.80;16.30;99485.00;;;;5070361;28;20225;-43
2024/01/06 01:26:50;;;;;;;2.27;2.00;;;15.30;68.60;16.30;99489.00;;;;5048917;28;20246;-43
2024/01/06 01:29:16;;;;;;;2.30;2.10;;;15.30;68.70;16.20;99492.00;;;;5037329;28;20174;-44
2024/01/06 01:31:42;;;;;;;2.20;2.10;;;15.20;68.60;16.20;99487.00;;;;5071997;28;20174;-44
2024/01/06 01:34:08;;;;;;;2.40;2.20;;;15.20;68.60;16.20;99493.00;;;;5076433;28;20263;-44
2024/01/06 01:36:34;;;;;;;2.40;2.20;;;15.20;68.60;16.20;99493.00;;;;5070079;28;20550;-44
2024/01/06 01:38:59;;;;;;;2.30;2.13;;;15.20;68.60;16.20;99498.00;;;;5070458;28;20598;-44
2024/01/06 01:41:25;;;;;;;2.37;2.20;;;15.20;68.60;16.20;99497.00;;;;5069947;28;20182;-44
2024/01/06 01:43:57;;;;;;;2.10;2.00;;;15.20;68.60;16.20;99500.00;;;;5070027;28;20217;-43
2024/01/06 01:46:28;;;;;;;2.50;2.30;;;15.20;68.60;16.20;99503.00;;;;5037817;28;20186;-43
2024/01/06 01:48:58;;;;;;;2.40;2.20;;;15.20;68.60;16.20;99495.00;;;;5054804;28;20178;-44
2024/01/06 01:51:33;;;;;;;2.40;2.20;;;15.20;68.60;16.20;99511.00;;;;5036768;28;20182;-43
2024/01/06 01:54:01;;;;;;;2.47;2.27;;;15.20;68.60;16.20;99510.00;;;;5045303;28;20193;-44
2024/01/06 01:56:26;;;;;;;2.13;2.03;;;15.20;68.60;16.10;99506.00;;;;5036461;28;20186;-43
2024/01/06 01:58:52;;;;;;;2.40;2.20;;;15.20;68.60;16.10;99503.00;;;;5069884;28;20193;-43
2024/01/06 02:01:18;;;;;;;2.60;2.40;;;15.20;68.60;16.10;99505.00;;;;5069655;28;20177;-43
2024/01/06 02:03:44;;;;;;;2.10;2.00;;;15.10;68.60;16.10;99506.00;;;;5069351;28;20267;-43
2024/01/06 02:06:11;;;;;;;2.40;2.20;;;15.10;68.60;16.10;99508.00;;;;5069876;28;20765;-43
2024/01/06 02:08:37;;;;;;;2.50;2.30;;;15.10;68.60;16.10;99513.00;;;;5069450;28;20181;-43
2024/01/06 02:11:03;;;;;;;2.50;2.30;;;15.10;68.60;16.10;99506.00;;;;5051117;28;20174;-45
2024/01/06 02:13:36;;;;;;;2.20;2.10;;;15.10;68.60;16.10;99515.00;;;;5031959;28;20268;-43
2024/01/06 02:16:03;;;;;;;2.20;2.10;;;15.10;68.70;16.10;99524.00;;;;5069425;28;20798;-43
2024/01/06 02:18:28;;;;;;;2.40;2.20;;;15.10;69.50;16.10;99512.00;;;;5069432;28;20666;-44
2024/01/06 02:20:57;;;;;;;2.40;2.20;;;15.10;68.60;16.10;99519.00;;;;5069390;28;20211;-44
2024/01/06 02:23:23;;;;;;;2.33;2.20;;;15.10;68.60;16.10;99510.00;;;;5031895;28;20206;-44
2024/01/06 02:25:49;;;;;;;2.43;2.23;;;15.10;68.60;16.10;99518.00;;;;5069155;28;20527;-43
2024/01/06 02:28:14;;;;;;;2.10;2.00;;;15.10;68.60;16.10;99523.00;;;;5069333;28;20215;-43
2024/01/06 02:30:40;;;;;;;2.50;2.30;;;15.10;68.70;16.10;99527.00;;;;5068608;28;20178;-43
2024/01/06 02:33:06;;;;;;;2.40;2.20;;;15.10;68.70;16.10;99447.00;;;;5069206;28;20665;-43
2024/01/06 02:35:31;;;;;;;2.60;2.30;;;15.10;68.60;16.10;99534.00;;;;5050768;28;20183;-44
2024/01/06 02:37:57;;;;;;;2.50;2.30;;;15.00;68.60;16.00;99525.00;;;;5073508;28;20176;-43
2024/01/06 02:40:23;;;;;;;2.33;2.13;;;15.00;68.60;16.00;99532.00;;;;5038985;28;20216;-43
2024/01/06 02:42:49;;;;;;;2.67;2.47;;;15.00;68.60;16.00;99531.00;;;;5067629;28;20228;-43
2024/01/06 02:45:14;;;;;;;2.60;2.40;;;15.10;68.70;16.00;99544.00;;;;5068727;28;20182;-43
2024/01/06 02:47:40;;;;;;;2.40;2.20;;;15.10;68.70;16.00;99536.00;;;;5068805;28;20189;-43
2024/01/06 02:50:06;;;;;;;2.60;2.40;;;15.00;68.60;16.00;99536.00;;;;5068833;28;20185;-43
2024/01/06 02:52:32;;;;;;;2.47;2.27;;;15.00;68.60;16.00;99545.00;;;;5068779;28;20316;-43
2024/01/06 02:54:58;;;;;;;2.63;2.43;;;15.00;68.60;16.00;99543.00;;;;5069051;28;20264;-42
2024/01/06 02:57:24;;;;;;;2.50;2.30;;;15.00;68.60;16.00;99541.00;;;;5061349;28;20188;-43
2024/01/06 02:59:50;;;;;;;2.70;2.50;;;15.00;68.60;16.00;99551.00;;;;5073776;28;20177;-43
2024/01/06 03:02:16;;;;;;;2.83;2.63;;;15.00;68.60;16.00;99554.00;;;;5062584;28;20179;-43
2024/01/06 03:04:42;;;;;;;2.53;2.33;;;15.00;68.60;16.00;99560.00;;;;5067239;28;20205;-44
2024/01/06 03:07:08;;;;;;;2.70;2.50;;;15.00;68.60;16.00;99565.00;;;;5068744;28;20181;-44
2024/01/06 03:09:33;;;;;;;2.87;2.57;;;15.00;68.60;16.00;99572.00;;;;5070618;28;20177;-49
2024/01/06 03:11:59;;;;;;;2.57;2.37;;;15.00;68.60;16.00;99566.00;;;;5079212;28;20184;-44
2024/01/06 03:14:25;;;;;;;2.67;2.47;;;15.00;68.60;16.00;99572.00;;;;5072039;28;20197;-43
2024/01/06 03:16:50;;;;;;;2.90;2.70;;;14.90;68.50;16.00;99575.00;;;;5068245;28;20178;-43
2024/01/06 03:19:16;;;;;;;2.80;2.60;;;14.90;68.50;16.00;99576.00;;;;5068432;28;20182;-43
2024/01/06 03:21:42;;;;;;;2.60;2.40;;;14.90;68.50;15.90;99579.00;;;;5068461;28;20216;-44
2024/01/06 03:24:09;;;;;;;2.80;2.60;;;14.90;68.50;15.90;99579.00;;;;5068782;28;20214;-43
2024/01/06 03:26:34;;;;;;;2.50;2.30;;;14.90;68.50;15.90;99585.00;;;;5034743;28;20282;-43
2024/01/06 03:29:02;;;;;;;2.70;2.50;;;14.90;68.50;15.90;99592.00;;;;5040926;28;20780;-43
2024/01/06 03:31:29;;;;;;;2.60;2.40;;;14.90;68.60;15.90;99598.00;;;;5068385;28;20845;-45
2024/01/06 03:33:55;;;;;;;2.73;2.53;;;14.90;68.60;15.90;99602.00;;;;5068389;28;20270;-44
2024/01/06 03:36:21;;;;;;;2.80;2.60;;;14.90;68.60;15.90;99591.00;;;;5068570;28;20197;-43
2024/01/06 03:38:47;;;;;;;2.80;2.60;;;14.90;68.60;15.90;99599.00;;;;5068011;28;20247;-43
2024/01/06 03:41:13;;;;;;;3.23;2.93;;;14.90;68.60;15.90;99600.00;;;;5068121;28;20718;-44
2024/01/06 03:43:38;;;;;;;2.70;2.50;;;14.80;68.40;15.90;99590.00;;;;5067801;28;20205;-44
2024/01/06 03:46:05;;;;;;;2.67;2.47;;;14.90;68.50;15.90;99593.00;;;;5068139;28;20186;-44
2024/01/06 03:48:31;;;;;;;2.87;2.67;;;14.80;68.40;15.90;99597.00;;;;5067942;28;20272;-43
2024/01/06 03:50:59;;;;;;;2.90;2.70;;;14.80;68.50;15.90;99603.00;;;;5068023;28;20250;-44
2024/01/06 03:53:24;;;;;;;2.90;2.70;;;14.90;68.60;15.90;99596.00;;;;5067173;28;20284;-43
2024/01/06 03:55:51;;;;;;;2.83;2.60;;;14.90;68.60;15.80;99590.00;;;;5059899;28;20709;-43
2024/01/06 03:58:17;;;;;;;2.73;2.53;;;14.80;68.60;15.90;99598.00;;;;5067786;28;20209;-43
2024/01/06 04:00:43;;;;;;;3.07;2.77;;;14.80;68.60;15.80;99586.00;;;;5067758;28;20580;-43
2024/01/06 04:03:09;;;;;;;3.00;2.80;;;14.80;68.60;15.80;99584.00;;;;5068824;28;20209;-43
2024/01/06 04:05:34;;;;;;;2.87;2.67;;;14.80;68.60;15.80;99605.00;;;;5068623;28;20185;-43
2024/01/06 04:08:00;;;;;;;3.03;2.83;;;14.80;68.50;15.80;99603.00;;;;5068876;28;20265;-43
2024/01/06 04:10:26;;;;;;;3.20;2.90;;;14.80;68.50;15.80;99599.00;;;;5068615;28;20189;-43
2024/01/06 04:12:51;;;;;;;2.80;2.60;;;14.80;68.50;15.80;99600.00;;;;5060464;28;20197;-43
2024/01/06 04:15:17;;;;;;;3.00;2.80;;;14.80;68.50;15.80;99600.00;;;;5035790;28;20189;-42
2024/01/06 04:17:43;;;;;;;2.83;2.63;;;14.80;68.60;15.80;99592.00;;;;5066668;28;20235;-43
2024/01/06 04:20:12;;;;;;;2.90;2.70;;;14.80;68.60;15.80;99598.00;;;;5068168;28;20266;-43
2024/01/06 04:22:38;;;;;;;3.43;3.10;;;14.80;68.60;15.80;99601.00;;;;5068132;28;20200;-43
2024/01/06 04:25:04;;;;;;;3.30;3.00;;;14.80;68.60;15.80;99601.00;;;;5063594;28;20187;-44
2024/01/06 04:27:30;;;;;;;3.00;2.80;;;14.80;68.60;15.80;99596.00;;;;5065130;28;20181;-43
2024/01/06 04:29:56;;;;;;;3.13;2.93;;;14.80;68.60;15.80;99597.00;;;;5068465;28;20323;-43
2024/01/06 04:32:22;;;;;;;3.10;2.90;;;14.80;68.60;15.80;99609.00;;;;5068268;28;20260;-44
2024/01/06 04:34:48;;;;;;;3.60;3.30;;;14.70;68.50;15.70;99606.00;;;;5065492;28;20348;-43
2024/01/06 04:37:14;;;;;;;3.53;3.27;;;14.80;68.60;15.70;99609.00;;;;5063156;28;20189;-43
2024/01/06 04:39:40;;;;;;;4.00;3.23;;;14.80;68.60;15.70;99608.00;;;;5063429;28;20216;-43
2024/01/06 04:42:06;;;;;;;3.63;3.10;;;14.70;68.60;15.80;99615.00;;;;5067003;28;20224;-43
2024/01/06 04:44:31;;;;;;;3.50;3.20;;;14.80;68.80;15.70;99615.00;;;;5034081;28;20206;-42
2024/01/06 04:46:57;;;;;;;3.53;3.23;;;14.80;68.80;15.70;99620.00;;;;5067872;28;20665;-43
2024/01/06 04:49:23;;;;;;;3.90;3.57;;;14.80;68.80;15.70;99619.00;;;;5067968;28;20178;-43
2024/01/06 04:51:49;;;;;;;4.17;3.47;;;14.80;68.80;15.70;99613.00;;;;5067833;28;20212;-44
2024/01/06 04:54:14;;;;;;;6.47;3.53;;;14.70;68.70;15.70;99627.00;;;;5067987;28;20645;-43
2024/01/06 04:56:40;;;;;;;4.10;3.70;;;14.70;68.70;15.70;99624.00;;;;5067225;28;20714;-43
2024/01/06 04:59:06;;;;;;;3.80;3.50;;;14.70;68.70;15.70;99620.00;;;;5067779;28;20178;-42
2024/01/06 05:01:32;;;;;;;4.10;3.60;;;14.70;68.70;15.70;99635.00;;;;5066516;28;20189;-43
2024/01/06 05:03:58;;;;;;;3.63;3.33;;;14.70;68.60;15.70;99640.00;;;;5068306;28;20311;-43
2024/01/06 05:06:24;;;;;;;4.10;3.80;;;14.70;68.70;15.70;99643.00;;;;5071380;28;20180;-44
2024/01/06 05:08:50;;;;;;;5.47;3.57;;;14.70;69.60;15.70;99642.00;;;;5045159;28;20749;-43
2024/01/06 05:11:16;;;;;;;3.80;3.50;;;14.70;68.70;15.70;99644.00;;;;5071342;28;20184;-42
2024/01/06 05:13:42;;;;;;;4.13;3.50;;;14.70;68.70;15.70;99656.00;;;;5071351;28;20574;-43
2024/01/06 05:16:08;;;;;;;4.10;3.73;;;14.70;68.70;15.70;99651.00;;;;5070951;28;20186;-43
2024/01/06 05:18:34;;;;;;;4.30;3.87;;;14.70;68.70;15.70;99649.00;;;;5071741;28;20189;-44
2024/01/06 05:21:00;;;;;;;3.93;3.63;;;14.70;68.90;15.70;99655.00;;;;5071679;28;20652;-43
2024/01/06 05:23:26;;;;;;;5.17;4.00;;;14.70;68.90;15.70;99666.00;;;;5053649;28;20216;-43
2024/01/06 05:25:52;;;;;;;5.20;4.00;;;14.70;68.90;15.60;99660.00;;;;5073791;28;20173;-43
2024/01/06 05:28:17;;;;;;;4.13;3.83;;;14.60;68.80;15.70;99669.00;;;;5073895;28;20216;-44
2024/01/06 05:30:43;;;;;;;5.37;4.30;;;14.70;68.90;15.70;99672.00;;;;5070243;28;20190;-43
2024/01/06 05:33:15;;;;;;;4.37;3.90;;;14.70;68.90;15.60;99669.00;;;;5070868;28;20575;-43
2024/01/06 05:35:41;;;;;;;4.57;4.17;;;14.60;68.80;15.60;99683.00;;;;5070462;28;20235;-43
2024/01/06 05:38:07;;;;;;;4.33;3.87;;;14.60;68.80;15.60;99687.00;;;;5071222;28;20263;-44
2024/01/06 05:40:32;;;;;;;4.50;4.10;;;14.60;68.80;15.60;99687.00;;;;5052460;28;20291;-43
2024/01/06 05:42:58;;;;;;;4.47;4.10;;;14.60;68.80;15.60;99687.00;;;;5070759;28;20205;-44
2024/01/06 05:45:24;;;;;;;5.77;4.20;;;14.60;68.80;15.60;99695.00;;;;5070621;28;20178;-44
2024/01/06 05:47:50;;;;;;;4.60;4.20;;;14.60;68.80;15.60;99694.00;;;;5070774;28;20181;-44
2024/01/06 05:50:16;;;;;;;4.63;4.23;;;14.60;68.80;15.60;99694.00;;;;5077433;28;20192;-43
2024/01/06 05:52:42;;;;;;;4.10;3.80;;;14.60;68.80;15.60;99705.00;;;;5054285;28;20280;-44
2024/01/06 05:55:09;;;;;;;4.57;4.17;;;14.60;68.80;15.60;99713.00;;;;5070284;28;20211;-43
2024/01/06 05:57:35;;;;;;;6.03;4.57;;;14.60;68.80;15.60;99714.00;;;;5078705;28;20182;-42
2024/01/06 06:00:00;;;;;;;4.37;3.83;;;14.50;68.80;15.60;99719.00;;;;5078593;28;20208;-42
2024/01/06 06:02:26;;;;;;;4.27;3.97;;;14.60;68.80;15.60;99724.00;;;;5069446;28;20255;-43
2024/01/06 06:04:52;;;;;;;4.63;4.00;;;14.60;68.80;15.60;99725.00;;;;5070178;28;20613;-43
2024/01/06 06:07:18;;;;;;;4.23;3.80;;;14.60;68.80;15.60;99727.00;;;;5070128;28;20178;-43
2024/01/06 06:09:47;;;;;;;4.87;4.00;;;14.60;68.70;15.60;99726.00;;;;5064328;28;20538;-43
2024/01/06 06:12:13;;;;;;;4.40;4.00;;;14.60;68.80;15.50;99733.00;;;;5052214;28;20226;-43
2024/01/06 06:14:39;;;;;;;4.17;3.77;;;14.60;68.80;15.60;99733.00;;;;5068481;28;20182;-44
2024/01/06 06:17:05;;;;;;;4.10;3.70;;;14.60;68.60;15.50;99728.00;;;;5067547;28;20203;-44
2024/01/06 06:19:31;;;;;;;4.53;3.80;;;14.50;68.70;15.60;99733.00;;;;5069762;28;20272;-43
2024/01/06 06:21:56;;;;;;;3.90;3.60;;;14.60;68.70;15.50;99747.00;;;;5069638;28;20178;-46
2024/01/06 06:24:22;;;;;;;4.13;3.73;;;14.60;68.70;15.50;99744.00;;;;5068846;28;20697;-43
2024/01/06 06:26:48;;;;;;;4.27;3.60;;;14.50;68.60;15.50;99744.00;;;;5069770;28;20238;-44
2024/01/06 06:29:13;;;;;;;3.70;3.40;;;14.50;68.60;15.50;99754.00;;;;5069985;28;20182;-44
2024/01/06 06:31:39;;;;;;;4.63;3.60;;;14.60;68.60;15.50;99774.00;;;;5047994;28;20185;-43
2024/01/06 06:34:05;;;;;;;3.67;3.37;;;14.50;68.50;15.50;99765.00;;;;5069725;28;20270;-43
2024/01/06 06:36:31;;;;;;;3.93;3.50;;;14.50;68.50;15.50;99768.00;;;;5069324;28;20185;-43
2024/01/06 06:38:58;;;;;;;4.33;3.93;;;14.50;68.50;15.50;99774.00;;;;5069827;28;20213;-43
2024/01/06 06:41:25;;;;;;;3.70;3.40;;;14.50;68.50;15.50;99781.00;;;;5069531;28;20273;-43
2024/01/06 06:43:50;;;;;;;3.90;3.60;;;14.50;68.50;15.50;99785.00;;;;5069288;28;20209;-44
2024/01/06 06:46:16;;;;;;;4.03;3.70;;;14.50;68.50;15.50;99784.00;;;;5068676;28;20193;-43
2024/01/06 06:48:42;;;;;;;4.17;3.77;;;14.50;68.40;15.50;99793.00;;;;5069562;28;20533;-43
2024/01/06 06:51:08;;;;;;;3.83;3.53;;;14.50;68.40;15.50;99794.00;;;;5069198;28;20184;-44
2024/01/06 06:53:33;;;;;;;4.20;3.80;;;14.50;68.40;15.50;99796.00;;;;5069171;28;20244;-44
2024/01/06 06:55:59;;;;;;;4.00;3.60;;;14.50;68.30;15.50;99813.00;;;;5068797;28;20189;-43
2024/01/06 06:58:25;;;;;;;3.70;3.40;;;14.50;68.40;15.50;99811.00;;;;5069614;28;20185;-43
2024/01/06 07:00:51;;;;;;;4.03;3.63;;;14.50;68.40;15.50;99812.00;;;;5068446;28;20252;-44
2024/01/06 07:03:16;;;;;;;4.13;3.73;;;14.50;68.40;15.40;99822.00;;;;5069279;28;20202;-43
2024/01/06 07:05:42;;;;;;;4.10;3.70;;;14.40;68.30;15.50;99817.00;;;;5068744;28;20197;-44
2024/01/06 07:08:08;;;;;;;3.80;3.50;;;14.40;68.20;15.40;99818.00;;;;5069337;28;20595;-43
2024/01/06 07:10:33;;;;;;;3.67;3.37;;;14.40;68.30;15.40;99829.00;;;;5069306;28;20177;-42
2024/01/06 07:12:59;;;;;;;3.50;3.20;;;14.40;68.30;15.40;99827.00;;;;5051377;28;20193;-50
2024/01/06 07:15:25;;;;;;;4.00;3.60;;;14.40;68.20;15.40;99831.00;;;;5068810;28;20562;-43
2024/01/06 07:17:51;;;;;;;3.93;3.63;;;14.50;68.30;15.40;99845.00;;;;5068617;28;20200;-44
2024/01/06 07:20:16;;;;;;;4.00;3.70;;;14.40;68.20;15.40;99842.00;;;;5068651;28;20170;-44
2024/01/06 07:22:42;;;;;;;3.70;3.40;;;14.40;68.20;15.40;99846.00;;;;5068783;28;20681;-42
2024/01/06 07:25:08;;;;;;;4.20;3.73;;;14.40;68.20;15.40;99842.00;;;;5068585;28;20209;-43
2024/01/06 07:27:34;;;;;;;3.67;3.37;;;14.40;68.20;15.40;99851.00;;;;5068093;28;20193;-43
2024/01/06 07:29:59;;;;;;;3.40;3.20;;;14.40;68.20;15.40;99862.00;;;;5073197;28;20784;-45
2024/01/06 07:32:25;;;;;;;4.00;3.70;;;14.40;68.20;15.40;99856.00;;;;5068907;28;20660;-42
2024/01/06 07:34:51;;;;;;;3.80;3.50;;;14.40;68.20;15.40;99862.00;;;;5068267;28;20181;-43
2024/01/06 07:37:17;;;;;;;3.77;3.47;;;14.40;68.30;15.40;99855.00;;;;5068744;28;20188;-43
2024/01/06 07:39:43;;;;;;;3.80;3.40;;;14.40;68.20;15.40;99862.00;;;;5068863;28;20188;-43
2024/01/06 07:42:08;;;;;;;3.90;3.60;;;14.40;68.20;15.40;99866.00;;;;5069220;28;20760;-44
2024/01/06 07:44:34;;;;;;;3.73;3.43;;;14.40;68.30;15.40;99873.00;;;;5068128;28;20217;-43
2024/01/06 07:47:02;;;;;;;4.20;3.60;;;14.40;68.20;15.30;99869.00;;;;5068043;28;20190;-43
2024/01/06 07:49:27;;;;;;;4.00;3.60;;;14.40;68.20;15.40;99876.00;;;;5068195;28;20180;-43
2024/01/06 07:51:53;;;;;;;3.80;3.47;;;14.40;68.20;15.30;99875.00;;;;5083603;28;20169;-44
2024/01/06 07:54:19;;;;;;;4.07;3.67;;;14.30;68.00;15.30;99876.00;;;;5068287;28;20231;-42
2024/01/06 07:56:45;;;;;;;3.90;3.60;;;14.30;68.00;15.30;99881.00;;;;5067650;28;20591;-43
2024/01/06 07:59:11;;;;;;;4.13;3.60;;;14.30;68.00;15.30;99884.00;;;;5068204;28;20181;-42
2024/01/06 08:01:37;;;;;;;3.67;3.37;;;14.30;68.30;15.30;99898.00;;;;5067573;28;20664;-43
2024/01/06 08:04:02;;;;;;;4.07;3.40;;;14.30;68.20;15.30;99898.00;;;;5067934;28;20244;-43
2024/01/06 08:06:28;;;;;;;5.77;3.67;;;14.30;68.80;15.30;99907.00;;;;5067974;28;20373;-44
2024/01/06 08:08:54;;;;;;;4.07;3.67;;;14.30;68.10;15.30;99909.00;;;;5076640;28;20185;-43
2024/01/06 08:11:20;;;;;;;4.10;3.70;;;14.40;68.50;15.30;99912.00;;;;5057528;28;20183;-44
2024/01/06 08:13:46;;;;;;;3.77;3.47;;;14.40;68.80;15.30;99925.00;;;;5069131;28;20198;-44
2024/01/06 08:16:12;;;;;;;4.13;3.60;;;14.50;68.90;15.30;99919.00;;;;5049326;28;20238;-43
2024/01/06 08:18:38;;;;;;;4.50;3.77;;;14.50;69.10;15.30;99920.00;;;;5065138;28;20669;-44
2024/01/06 08:21:04;;;;;;;6.63;3.40;;;14.60;69.40;15.30;99923.00;;;;5067842;28;20188;-43
2024/01/06 08:23:29;;;;;;;4.70;3.23;;;14.60;69.50;15.40;99931.00;;;;5060810;28;20685;-42
2024/01/06 08:25:55;;;;;;;5.17;2.97;;;14.60;69.60;15.40;99917.00;;;;5070091;28;20189;-42
2024/01/06 08:28:23;;;;;;;3.40;3.10;;;14.70;69.70;15.40;99940.00;;;;5048034;28;20268;-43
2024/01/06 08:30:49;;;;;;;3.30;3.00;;;14.70;69.60;15.50;99940.00;;;;5067822;28;20615;-43
2024/01/06 08:33:15;;;;;;;4.20;3.30;;;14.80;69.60;15.50;99944.00;;;;5049018;28;20201;-43
2024/01/06 08:35:40;;;;;;;4.67;2.70;;;15.00;69.80;15.60;99956.00;;;;5067795;28;20186;-43
2024/01/06 08:38:09;;;;;;;3.47;2.77;;;15.00;69.60;15.70;99954.00;;;;5075905;28;20211;-43
2024/01/06 08:40:35;;;;;;;5.80;2.80;;;15.10;69.60;15.80;99963.00;;;;5071027;28;20209;-43
2024/01/06 08:43:01;;;;;;;4.67;2.63;;;15.30;69.70;15.90;99970.00;;;;5071456;28;20240;-42
2024/01/06 08:45:27;;;;;;;4.10;2.50;;;15.40;69.40;16.00;99969.00;;;;5071394;28;20595;-41
2024/01/06 08:47:53;;;;;;;5.17;2.50;;;15.50;69.20;16.10;99990.00;;;;5070530;28;20170;-42
2024/01/06 08:50:19;;;;;;;4.97;2.40;;;15.60;69.00;16.20;99990.00;;;;5052622;28;20194;-42
2024/01/06 08:52:44;;;;;;;2.57;2.30;;;15.80;68.80;16.30;99983.00;;;;5071950;28;20194;-42
2024/01/06 08:55:10;;;;;;;2.40;2.20;;;15.90;68.60;16.40;99987.00;;;;5072391;28;20765;-42
2024/01/06 08:57:36;;;;;;;3.83;2.30;;;16.00;68.40;16.50;99992.00;;;;5072072;28;20201;-42
2024/01/06 09:00:04;;;;;;;2.80;2.00;;;16.20;68.40;16.60;99986.00;;;;5071115;28;20232;-42
2024/01/06 09:02:30;;;;;;;2.90;2.10;;;16.30;68.10;16.70;99991.00;;;;5070825;28;20290;-43
2024/01/06 09:04:55;;;;;;;3.10;2.13;;;16.40;68.10;16.80;99996.00;;;;5075652;28;20209;-42
2024/01/06 09:07:21;;;;;;;3.17;2.00;;;16.50;68.10;16.90;100005.00;;;;5075972;28;20182;-43
2024/01/06 09:09:47;;;;;;;2.70;1.70;;;16.60;68.00;17.00;99993.00;;;;5070630;28;20285;-42
2024/01/06 09:12:12;;;;;;;3.33;2.00;;;16.70;67.90;17.10;100000.00;;;;5070973;28;20174;-43
2024/01/06 09:14:38;;;;;;;2.47;1.97;;;16.80;67.90;17.20;100009.00;;;;5071412;28;20210;-43
2024/01/06 09:17:04;;;;;;;1.93;1.80;;;16.80;67.70;17.30;100007.00;;;;5070379;28;20179;-43
2024/01/06 09:19:30;;;;;;;3.00;1.80;;;16.90;67.70;17.40;100008.00;;;;5070780;28;20271;-43
2024/01/06 09:21:56;;;;;;;2.30;1.80;;;17.00;67.60;17.40;100011.00;;;;5033401;28;20574;-49
2024/01/06 09:24:22;;;;;;;2.40;1.80;;;17.10;67.70;17.50;100018.00;;;;5066437;28;20578;-43
2024/01/06 09:26:50;;;;;;;2.20;2.00;;;17.20;67.70;17.60;100023.00;;;;5055328;28;20193;-43
2024/01/06 09:29:16;;;;;;;1.80;1.70;;;17.20;67.60;17.70;100027.00;;;;5075818;28;20665;-44
2024/01/06 09:31:42;;;;;;;2.20;1.70;;;17.30;67.50;17.70;100038.00;;;;5069830;28;20216;-43
2024/01/06 09:34:10;;;;;;;2.33;1.90;;;17.30;68.20;17.80;100036.00;;;;5070513;28;20220;-43
2024/01/06 09:36:35;;;;;;;2.17;1.70;;;17.40;67.40;17.90;100036.00;;;;5070924;28;20187;-43
2024/01/06 09:39:01;;;;;;;1.93;1.73;;;17.50;67.40;17.90;100036.00;;;;5070965;28;20583;-43
2024/01/06 09:41:27;;;;;;;1.73;1.63;;;17.50;67.40;18.00;100039.00;;;;5070630;28;20643;-42
2024/01/06 09:43:53;;;;;;;1.70;1.60;;;17.60;67.50;18.10;100044.00;;;;5052122;28;20194;-43
2024/01/06 09:46:29;;;;;;;3.73;1.97;;;17.60;67.30;18.10;100053.00;;;;5070359;28;20204;-45
2024/01/06 09:48:55;;;;;;;2.83;1.93;;;17.70;68.40;18.20;100054.00;;;;5052092;28;20181;-44
2024/01/06 09:51:21;;;;;;;5.57;2.00;;;17.70;68.80;18.20;100059.00;;;;5051250;28;20256;-45
2024/01/06 09:54:00;;;;;;;4.60;2.10;;;17.80;68.90;18.30;100057.00;;;;5051780;28;20686;-45
2024/01/06 09:56:27;;;;;;;4.30;1.90;;;17.80;69.00;18.30;100059.00;;;;5053921;28;20177;-44
2024/01/06 09:58:54;;;;;;;3.13;2.00;;;17.90;69.50;18.30;100060.00;;;;5071537;28;20190;-45
2024/01/06 10:01:19;;;;;;;4.50;1.97;;;17.80;69.40;18.40;100067.00;;;;5051537;28;20187;-45
2024/01/06 10:03:45;;;;;;;3.83;1.90;;;17.90;69.60;18.40;100083.00;;;;5071811;28;20209;-46
2024/01/06 10:06:13;;;;;;;4.03;1.83;;;17.90;69.90;18.40;100082.00;;;;5081229;28;20232;-46
2024/01/06 10:08:40;;;;;;;3.27;2.30;;;17.80;70.10;18.40;100084.00;;;;5052035;28;20557;-44
2024/01/06 10:11:12;;;;;;;5.63;2.10;;;17.80;70.70;18.40;100078.00;;;;5070448;28;20181;-44
2024/01/06 10:13:38;;;;;;;5.53;2.20;;;17.90;71.40;18.40;100086.00;;;;5069735;28;20220;-44
2024/01/06 10:16:05;;;;;;;3.57;2.20;;;17.80;71.90;18.40;100082.00;;;;5070689;28;20625;-46
2024/01/06 10:18:31;;;;;;;3.27;2.03;;;17.80;72.40;18.50;100089.00;;;;5069262;28;20619;-44
2024/01/06 10:20:57;;;;;;;2.53;2.03;;;17.80;73.10;18.50;100086.00;;;;5070421;28;20212;-44
2024/01/06 10:23:23;;;;;;;3.37;2.23;;;17.70;74.10;18.40;100087.00;;;;5051124;28;20221;-45
2024/01/06 10:25:55;;;;;;;4.80;2.13;;;17.70;73.80;18.40;100094.00;;;;5068406;28;20213;-46
2024/01/06 10:28:22;;;;;;;3.07;2.00;;;17.70;74.00;18.40;100091.00;;;;5069894;28;20586;-45
2024/01/06 10:30:49;;;;;;;3.83;2.20;;;17.60;73.90;18.40;100089.00;;;;5051619;28;20189;-45
2024/01/06 10:33:15;;;;;;;2.47;2.20;;;17.60;73.90;18.30;100088.00;;;;5050754;28;20201;-45
2024/01/06 10:35:41;;;;;;;4.53;2.30;;;17.50;73.80;18.30;100090.00;;;;5051074;28;20185;-45
2024/01/06 10:38:07;;;;;;;2.77;2.30;;;17.60;73.80;18.30;100090.00;;;;5068982;28;20177;-45
2024/01/06 10:40:33;;;;;;;4.67;2.40;;;17.50;73.70;18.30;100091.00;;;;5067807;28;20189;-44
2024/01/06 10:43:00;;;;;;;2.57;2.00;;;17.40;73.70;18.30;100088.00;;;;5051037;28;20669;-44
2024/01/06 10:45:25;;;;;;;4.20;2.30;;;17.40;73.70;18.20;100094.00;;;;5051539;28;20531;-46
2024/01/06 10:47:51;;;;;;;3.63;2.20;;;17.40;73.70;18.20;100087.00;;;;5051728;28;20207;-45